Time;durP1;ratioP1;P1;durP2;ratioP2;P2;SDS_P1;SDS_P2;PMS_P1;PMS_P2;Temp;Humidity;BMP_temperature;BMP_pressure;BME280_temperature;BME280_humidity;BME280_pressure;Samples;Min_cycle;Max_cycle;Signal;HPM_P1;HPM_P2
2023/08/01 00:00:22;;;;;;;5.50;0.90;;;;;;;19.59;67.61;99297.30;110562;1273;22260;-58
2023/08/01 00:03:13;;;;;;;4.80;0.80;;;;;;;19.59;67.63;99295.88;110511;1273;23368;-59
2023/08/01 00:05:44;;;;;;;5.40;0.90;;;;;;;19.59;67.73;99293.41;110571;1273;22143;-59
2023/08/01 00:08:15;;;;;;;7.60;0.90;;;;;;;19.58;67.67;99290.70;110503;1273;22421;-57
2023/08/01 00:10:46;;;;;;;5.70;0.90;;;;;;;19.58;67.74;99283.73;110531;1273;22389;-58
2023/08/01 00:13:17;;;;;;;6.40;1.20;;;;;;;19.58;67.69;99279.33;110556;1273;23484;-58
2023/08/01 00:15:47;;;;;;;3.80;0.80;;;;;;;19.56;67.72;99277.55;110569;1272;22260;-56
2023/08/01 00:18:18;;;;;;;6.10;0.80;;;;;;;19.55;67.79;99275.89;110529;1273;22420;-57
2023/08/01 00:20:49;;;;;;;5.70;1.40;;;;;;;19.56;67.90;99271.36;110538;1273;22778;-56
2023/08/01 00:23:20;;;;;;;3.60;0.90;;;;;;;19.57;67.93;99272.31;110490;1262;22921;-60
2023/08/01 00:25:51;;;;;;;6.70;0.90;;;;;;;19.57;67.86;99267.36;110556;1273;22393;-58
2023/08/01 00:28:23;;;;;;;6.20;0.70;;;;;;;19.57;67.91;99262.41;110531;1273;22232;-60
2023/08/01 00:31:02;;;;;;;7.70;1.00;;;;;;;19.57;67.97;99260.23;110543;1268;22210;-56
2023/08/01 00:33:33;;;;;;;3.60;0.80;;;;;;;19.56;67.94;99256.15;110548;1273;23018;-56
2023/08/01 00:36:08;;;;;;;5.10;0.90;;;;;;;19.55;67.98;99253.96;110535;1273;22833;-56
2023/08/01 00:38:40;;;;;;;4.30;0.90;;;;;;;19.55;67.98;99248.29;110538;1273;22247;-57
2023/08/01 00:41:11;;;;;;;4.40;0.80;;;;;;;19.54;68.05;99242.71;110567;1273;22185;-57
2023/08/01 00:43:42;;;;;;;4.30;0.70;;;;;;;19.54;68.05;99236.70;110517;1273;22238;-59
2023/08/01 00:46:13;;;;;;;7.00;0.80;;;;;;;19.52;68.07;99228.66;110549;1273;22196;-60
2023/08/01 00:48:44;;;;;;;5.50;0.70;;;;;;;19.51;68.16;99233.91;110509;1273;22159;-59
2023/08/01 00:51:17;;;;;;;4.80;1.00;;;;;;;19.50;68.17;99227.98;110498;1273;22245;-55
2023/08/01 00:53:49;;;;;;;3.80;1.00;;;;;;;19.46;68.18;99222.02;110527;1273;22184;-57
2023/08/01 00:56:20;;;;;;;6.30;0.80;;;;;;;19.44;68.31;99219.98;110489;1273;23334;-57
2023/08/01 00:58:51;;;;;;;5.30;0.80;;;;;;;19.39;68.35;99214.65;110549;1273;22205;-59
2023/08/01 01:01:22;;;;;;;4.00;0.80;;;;;;;19.34;68.43;99212.98;110550;1273;23431;-56
2023/08/01 01:03:53;;;;;;;5.40;1.10;;;;;;;19.32;68.53;99210.36;110546;1273;22464;-60
2023/08/01 01:06:29;;;;;;;4.80;1.00;;;;;;;19.31;68.59;99206.09;110515;1265;22299;-58
2023/08/01 01:09:00;;;;;;;4.20;1.00;;;;;;;19.27;68.65;99203.18;110534;1265;22227;-58
2023/08/01 01:11:30;;;;;;;4.30;1.00;;;;;;;19.25;68.56;99198.39;110542;1259;22458;-58
2023/08/01 01:14:01;;;;;;;3.80;0.80;;;;;;;19.23;68.61;99184.99;110552;1273;23249;-56
2023/08/01 01:16:32;;;;;;;6.20;0.90;;;;;;;19.20;68.65;99184.04;110512;1273;22160;-56
2023/08/01 01:19:08;;;;;;;5.90;0.90;;;;;;;19.18;68.67;99177.36;110529;1273;23407;-59
2023/08/01 01:21:41;;;;;;;6.90;0.90;;;;;;;19.18;68.74;99171.19;110559;1273;23438;-57
2023/08/01 01:24:31;;;;;;;3.20;0.70;;;;;;;19.11;68.73;99169.96;110552;1273;22166;-56
2023/08/01 01:27:03;;;;;;;3.40;0.80;;;;;;;19.06;68.80;99162.90;110531;1273;22419;-57
2023/08/01 01:29:35;;;;;;;4.50;0.70;;;;;;;19.03;68.88;99159.34;110545;1273;23360;-58
2023/08/01 01:32:08;;;;;;;4.40;0.80;;;;;;;19.01;68.93;99155.20;110527;1273;22196;-58
2023/08/01 01:34:38;;;;;;;10.00;0.90;;;;;;;19.01;68.92;99153.42;110563;1273;23053;-56
2023/08/01 01:37:10;;;;;;;3.90;0.90;;;;;;;18.99;68.94;99153.69;110517;1273;22350;-55
2023/08/01 01:39:41;;;;;;;5.40;0.80;;;;;;;18.96;68.98;99151.20;110530;1273;22155;-58
2023/08/01 01:42:13;;;;;;;3.10;0.60;;;;;;;18.95;69.05;99148.48;110555;1273;23011;-57
2023/08/01 01:44:44;;;;;;;5.00;0.90;;;;;;;18.93;69.08;99141.68;110543;1273;22285;-56
2023/08/01 01:47:14;;;;;;;4.70;0.70;;;;;;;18.92;69.04;99137.80;110535;1273;22199;-56
2023/08/01 01:49:45;;;;;;;7.50;0.90;;;;;;;18.91;69.13;99136.64;110524;1273;22821;-58
2023/08/01 01:52:16;;;;;;;4.60;0.70;;;;;;;18.89;69.18;99133.23;110527;1273;22879;-57
2023/08/01 01:54:47;;;;;;;6.50;0.80;;;;;;;18.88;69.06;99128.33;110548;1273;22375;-59
2023/08/01 01:57:18;;;;;;;5.30;0.70;;;;;;;18.87;69.20;99123.99;110522;1273;22405;-60
2023/08/01 01:59:49;;;;;;;6.60;0.90;;;;;;;18.82;69.17;99119.53;110530;1273;23202;-58
2023/08/01 02:02:20;;;;;;;3.80;0.90;;;;;;;18.81;69.29;99114.94;110548;1273;22227;-59
2023/08/01 02:04:52;;;;;;;5.60;0.80;;;;;;;18.79;69.29;99113.58;110536;1273;22336;-60
2023/08/01 02:07:23;;;;;;;6.10;0.90;;;;;;;18.75;69.37;99108.13;110518;1273;23175;-57
2023/08/01 02:09:54;;;;;;;5.50;0.80;;;;;;;18.72;69.42;99104.17;110548;1273;22243;-52
2023/08/01 02:12:25;;;;;;;4.90;1.00;;;;;;;18.68;69.48;99100.40;110571;1273;22354;-55
2023/08/01 02:14:55;;;;;;;4.70;0.90;;;;;;;18.67;69.61;99096.17;110574;1273;22449;-58
2023/08/01 02:17:26;;;;;;;4.50;0.80;;;;;;;18.66;69.61;99094.59;110532;1265;22216;-56
2023/08/01 02:19:57;;;;;;;3.70;0.80;;;;;;;18.66;69.71;99090.78;110514;1273;22413;-55
2023/08/01 02:22:28;;;;;;;3.60;1.00;;;;;;;18.66;69.77;99087.24;110540;1273;22999;-58
2023/08/01 02:24:59;;;;;;;3.80;0.70;;;;;;;18.66;69.85;99081.27;110547;1273;22348;-58
2023/08/01 02:27:30;;;;;;;5.00;0.90;;;;;;;18.65;69.81;99075.81;110529;1273;22234;-58
2023/08/01 02:30:00;;;;;;;4.20;0.80;;;;;;;18.65;69.72;99074.57;110558;1255;22313;-55
2023/08/01 02:32:32;;;;;;;3.20;0.70;;;;;;;18.65;69.82;99074.27;110369;1273;242206;-56
2023/08/01 02:35:03;;;;;;;7.70;0.90;;;;;;;18.64;69.77;99075.14;110559;1273;22684;-56
2023/08/01 02:37:33;;;;;;;7.60;1.10;;;;;;;18.63;69.82;99070.91;110528;1268;22127;-55
2023/08/01 02:40:07;;;;;;;3.90;0.80;;;;;;;18.61;69.86;99075.62;110535;1270;22223;-57
2023/08/01 02:42:38;;;;;;;5.30;0.90;;;;;;;18.59;70.01;99074.55;110564;1259;22159;-56
2023/08/01 02:45:09;;;;;;;7.60;1.10;;;;;;;18.56;70.12;99068.93;110527;1273;22916;-57
2023/08/01 02:47:40;;;;;;;5.30;0.90;;;;;;;18.55;70.37;99064.41;110546;1273;23018;-57
2023/08/01 02:50:11;;;;;;;3.80;0.60;;;;;;;18.53;70.59;99062.30;110558;1273;23331;-58
2023/08/01 02:52:42;;;;;;;5.30;0.80;;;;;;;18.51;70.81;99059.51;110563;1273;22217;-57
2023/08/01 02:55:13;;;;;;;6.50;0.90;;;;;;;18.50;70.86;99060.27;110519;1273;22182;-56
2023/08/01 02:57:44;;;;;;;7.10;0.90;;;;;;;18.48;70.98;99059.80;110550;1273;23355;-55
2023/08/01 03:00:17;;;;;;;4.60;0.70;;;;;;;18.48;71.39;99056.14;110528;1273;23396;-57
2023/08/01 03:02:48;;;;;;;6.40;1.10;;;;;;;18.48;71.45;99056.86;110563;1273;22249;-56
2023/08/01 03:05:19;;;;;;;6.20;1.00;;;;;;;18.47;71.67;99052.53;110551;1273;22165;-57
2023/08/01 03:07:50;;;;;;;4.20;0.70;;;;;;;18.46;72.05;99052.98;110524;1273;22191;-60
2023/08/01 03:10:20;;;;;;;4.60;0.80;;;;;;;18.44;72.20;99053.92;110486;1273;22228;-56
2023/08/01 03:12:51;;;;;;;7.50;1.20;;;;;;;18.42;72.25;99045.52;110553;1273;22289;-57
2023/08/01 03:15:22;;;;;;;8.10;1.00;;;;;;;18.42;72.41;99050.54;110541;1273;22192;-56
2023/08/01 03:17:53;;;;;;;8.40;1.10;;;;;;;18.39;72.54;99045.50;110533;1273;22270;-58
2023/08/01 03:20:24;;;;;;;5.20;0.80;;;;;;;18.38;72.50;99042.57;110554;1273;22162;-57
2023/08/01 03:22:55;;;;;;;2.80;0.70;;;;;;;18.38;72.58;99040.20;110539;1273;22943;-58
2023/08/01 03:25:25;;;;;;;6.20;1.10;;;;;;;18.37;72.93;99043.84;110549;1273;22243;-56
2023/08/01 03:27:57;;;;;;;5.00;0.80;;;;;;;18.32;73.00;99050.31;110517;1270;23342;-56
2023/08/01 03:30:28;;;;;;;5.10;1.00;;;;;;;18.30;73.22;99043.59;110557;1273;22364;-55
2023/08/01 03:33:00;;;;;;;3.90;0.90;;;;;;;18.27;73.54;99041.30;110565;1273;22370;-56
2023/08/01 03:35:32;;;;;;;7.40;1.00;;;;;;;18.24;73.58;99043.52;110507;1273;23085;-58
2023/08/01 03:38:02;;;;;;;5.90;1.00;;;;;;;18.24;73.65;99040.88;110524;1270;22199;-56
2023/08/01 03:40:33;;;;;;;7.40;1.40;;;;;;;18.22;73.79;99039.90;110548;1270;22901;-55
2023/08/01 03:43:04;;;;;;;4.40;0.70;;;;;;;18.21;73.83;99035.92;110566;1266;22166;-56
2023/08/01 03:45:35;;;;;;;5.70;1.20;;;;;;;18.18;73.89;99024.92;110525;1273;22280;-58
2023/08/01 03:48:07;;;;;;;6.40;1.10;;;;;;;18.15;74.02;99015.52;110515;1273;22189;-56
2023/08/01 03:50:37;;;;;;;6.90;0.90;;;;;;;18.14;74.31;99008.61;110539;1273;22252;-56
2023/08/01 03:53:08;;;;;;;6.10;1.00;;;;;;;18.13;74.33;99007.21;110543;1273;22216;-56
2023/08/01 03:55:39;;;;;;;7.40;1.00;;;;;;;18.11;74.35;99010.55;110546;1273;22264;-57
2023/08/01 03:58:10;;;;;;;6.80;1.10;;;;;;;18.11;74.52;99011.12;110514;1273;23176;-57
2023/08/01 04:00:41;;;;;;;5.00;1.10;;;;;;;18.11;74.67;99008.34;110533;1273;22201;-57
2023/08/01 04:03:11;;;;;;;8.00;1.10;;;;;;;18.12;74.73;99010.23;110531;1273;22306;-56
2023/08/01 04:05:42;;;;;;;5.80;1.10;;;;;;;18.11;74.94;99013.35;110531;1272;22153;-58
2023/08/01 04:08:13;;;;;;;5.10;1.00;;;;;;;18.10;75.05;99015.38;110516;1273;22188;-58
2023/08/01 04:10:44;;;;;;;4.00;0.80;;;;;;;18.08;75.21;99019.17;110517;1273;22221;-55
2023/08/01 04:13:15;;;;;;;6.70;1.00;;;;;;;18.08;75.44;99021.24;110541;1273;22269;-56
2023/08/01 04:15:45;;;;;;;4.00;0.90;;;;;;;18.07;75.85;99026.44;110541;1273;22136;-56
2023/08/01 04:18:16;;;;;;;5.50;1.00;;;;;;;18.07;75.94;99027.08;110505;1273;22467;-55
2023/08/01 04:20:48;;;;;;;6.40;1.10;;;;;;;18.05;76.20;99024.82;110517;1273;22631;-57
2023/08/01 04:23:19;;;;;;;5.40;1.00;;;;;;;18.03;76.40;99027.40;110487;1268;22210;-56
2023/08/01 04:25:50;;;;;;;5.60;1.00;;;;;;;18.02;76.84;99024.39;110517;1273;22192;-58
2023/08/01 04:28:20;;;;;;;9.50;1.20;;;;;;;17.99;76.81;99022.57;110518;1273;22332;-55
2023/08/01 04:30:54;;;;;;;8.70;1.20;;;;;;;17.96;77.20;99025.95;110551;1273;22150;-56
2023/08/01 04:33:25;;;;;;;4.80;0.90;;;;;;;17.93;77.39;99023.94;110513;1273;23146;-55
2023/08/01 04:35:56;;;;;;;5.20;1.10;;;;;;;17.91;77.70;99019.64;110527;1273;22188;-58
2023/08/01 04:38:26;;;;;;;6.30;1.10;;;;;;;17.89;77.92;99020.27;110552;1270;22194;-54
2023/08/01 04:40:57;;;;;;;7.20;1.20;;;;;;;17.86;78.33;99020.83;110479;1273;23162;-57
2023/08/01 04:43:28;;;;;;;6.90;1.50;;;;;;;17.84;78.76;99016.95;110450;1274;22309;-56
2023/08/01 04:45:59;;;;;;;7.70;1.40;;;;;;;17.83;79.08;99021.79;110473;1266;22329;-55
2023/08/01 04:48:30;;;;;;;8.80;1.20;;;;;;;17.80;79.18;99020.39;110545;1272;22186;-57
2023/08/01 04:51:01;;;;;;;9.40;1.20;;;;;;;17.78;79.68;99017.56;110469;1271;23458;-57
2023/08/01 04:53:32;;;;;;;6.40;1.40;;;;;;;17.77;79.82;99014.09;110423;1273;22424;-57
2023/08/01 04:56:03;;;;;;;5.90;1.20;;;;;;;17.78;80.07;99012.36;110440;1273;22312;-61
2023/08/01 04:58:33;;;;;;;7.40;1.20;;;;;;;17.76;80.50;99010.05;110444;1269;23188;-58
2023/08/01 05:01:04;;;;;;;4.80;1.20;;;;;;;17.74;80.82;99001.47;110458;1270;23129;-57
2023/08/01 05:03:35;;;;;;;7.80;1.30;;;;;;;17.72;81.05;99000.45;110452;1273;22347;-57
2023/08/01 05:06:06;;;;;;;7.60;1.20;;;;;;;17.71;81.33;98999.16;110442;1273;22250;-58
2023/08/01 05:08:37;;;;;;;4.10;1.30;;;;;;;17.69;81.64;99001.70;110493;1273;22161;-57
2023/08/01 05:11:08;;;;;;;7.60;1.20;;;;;;;17.69;81.78;98997.98;110509;1267;23231;-57
2023/08/01 05:13:39;;;;;;;10.70;1.80;;;;;;;17.68;82.14;98999.76;110501;1273;22185;-57
2023/08/01 05:16:10;;;;;;;9.70;1.50;;;;;;;17.67;82.37;98999.40;110568;1272;22274;-57
2023/08/01 05:18:41;;;;;;;7.60;1.20;;;;;;;17.67;82.46;99002.61;110508;1266;22236;-57
2023/08/01 05:21:11;;;;;;;6.10;1.20;;;;;;;17.66;82.84;98995.69;110536;1272;22201;-56
2023/08/01 05:23:42;;;;;;;6.90;1.50;;;;;;;17.67;83.15;98995.39;110492;1273;22202;-56
2023/08/01 05:26:13;;;;;;;5.90;1.40;;;;;;;17.66;83.44;98994.58;110556;1273;22282;-56
2023/08/01 05:28:44;;;;;;;7.20;1.40;;;;;;;17.64;83.66;98991.65;110560;1266;22255;-57
2023/08/01 05:31:14;;;;;;;11.70;1.60;;;;;;;17.64;83.88;98986.68;110520;1254;22417;-57
2023/08/01 05:33:45;;;;;;;5.60;1.30;;;;;;;17.63;84.12;98984.04;110527;1273;22443;-57
2023/08/01 05:36:16;;;;;;;7.80;1.30;;;;;;;17.63;84.29;98981.25;110531;1273;23082;-56
2023/08/01 05:38:47;;;;;;;9.00;1.30;;;;;;;17.65;84.64;98979.19;110478;1272;22423;-57
2023/08/01 05:41:18;;;;;;;8.30;1.80;;;;;;;17.66;84.89;98984.27;110576;1273;22857;-56
2023/08/01 05:43:49;;;;;;;7.40;1.60;;;;;;;17.66;85.13;98976.41;110525;1273;22274;-57
2023/08/01 05:46:20;;;;;;;6.20;1.60;;;;;;;17.65;85.33;98977.60;110513;1273;22347;-58
2023/08/01 05:48:51;;;;;;;12.90;1.60;;;;;;;17.65;85.61;98977.04;110500;1265;22921;-59
2023/08/01 05:51:22;;;;;;;6.10;1.50;;;;;;;17.64;85.80;98977.34;110542;1273;22365;-58
2023/08/01 05:53:53;;;;;;;8.30;1.60;;;;;;;17.63;86.16;98979.82;110511;1269;22384;-58
2023/08/01 05:56:24;;;;;;;5.90;1.40;;;;;;;17.63;86.67;98981.09;110533;1272;22263;-59
2023/08/01 05:58:55;;;;;;;8.70;1.50;;;;;;;17.63;86.85;98976.59;110530;1272;22277;-59
2023/08/01 06:01:26;;;;;;;7.70;1.60;;;;;;;17.63;87.05;98976.02;110514;1273;23058;-58
2023/08/01 06:03:57;;;;;;;9.20;2.40;;;;;;;17.61;87.24;98978.80;110543;1271;22219;-58
2023/08/01 06:06:27;;;;;;;10.70;2.20;;;;;;;17.61;87.31;98976.38;110492;1272;23071;-57
2023/08/01 06:08:58;;;;;;;7.60;1.60;;;;;;;17.62;87.66;98972.10;110404;1273;22330;-57
2023/08/01 06:11:30;;;;;;;8.40;1.50;;;;;;;17.62;87.74;98969.29;110516;1271;22304;-57
2023/08/01 06:14:00;;;;;;;9.00;1.50;;;;;;;17.63;87.98;98968.27;110483;1271;22314;-58
2023/08/01 06:16:31;;;;;;;8.10;1.40;;;;;;;17.64;88.35;98972.11;110502;1268;22221;-58
2023/08/01 06:19:02;;;;;;;8.10;1.50;;;;;;;17.63;88.85;98966.02;110520;1272;23209;-57
2023/08/01 06:21:33;;;;;;;10.10;1.80;;;;;;;17.64;89.06;98959.13;110465;1269;22200;-57
2023/08/01 06:24:04;;;;;;;9.80;1.80;;;;;;;17.64;89.35;98957.35;110544;1263;22376;-56
2023/08/01 06:26:35;;;;;;;8.40;1.60;;;;;;;17.65;89.39;98952.77;110490;1272;22379;-56
2023/08/01 06:29:06;;;;;;;8.40;1.50;;;;;;;17.68;89.36;98949.77;110523;1259;23508;-57
2023/08/01 06:31:37;;;;;;;10.60;1.50;;;;;;;17.68;89.49;98948.95;110486;1270;22260;-57
2023/08/01 06:34:07;;;;;;;9.60;1.90;;;;;;;17.68;89.64;98948.73;110505;1267;22240;-57
2023/08/01 06:36:38;;;;;;;7.00;1.40;;;;;;;17.70;90.02;98946.73;110474;1265;22594;-57
2023/08/01 06:39:09;;;;;;;11.30;1.70;;;;;;;17.70;90.12;98939.65;110496;1270;22347;-56
2023/08/01 06:41:40;;;;;;;9.30;1.40;;;;;;;17.71;90.21;98939.24;110529;1264;22206;-56
2023/08/01 06:44:11;;;;;;;8.90;1.50;;;;;;;17.73;90.30;98941.82;110536;1273;22252;-57
2023/08/01 06:46:42;;;;;;;7.60;1.70;;;;;;;17.74;90.53;98934.40;110499;1265;22353;-57
2023/08/01 06:49:13;;;;;;;7.60;1.90;;;;;;;17.74;90.56;98927.48;110498;1272;22205;-56
2023/08/01 06:51:44;;;;;;;8.40;2.20;;;;;;;17.71;90.67;98923.41;110466;1268;22164;-57
2023/08/01 06:54:15;;;;;;;8.90;1.80;;;;;;;17.68;90.66;98914.15;110443;1272;22892;-57
2023/08/01 06:56:48;;;;;;;8.50;1.50;;;;;;;17.69;90.98;98912.64;110518;1267;22144;-57
2023/08/01 06:59:19;;;;;;;9.70;1.40;;;;;;;17.68;91.19;98912.75;110465;1261;22546;-57
2023/08/01 07:01:49;;;;;;;6.90;1.40;;;;;;;17.68;91.27;98913.09;110540;1273;22178;-56
2023/08/01 07:04:20;;;;;;;12.80;1.70;;;;;;;17.69;91.48;98915.16;110535;1272;22161;-56
2023/08/01 07:06:51;;;;;;;5.00;1.60;;;;;;;17.69;91.55;98907.02;110542;1272;22150;-57
2023/08/01 07:09:22;;;;;;;7.50;1.70;;;;;;;17.69;91.68;98908.02;110573;1267;23158;-56
2023/08/01 07:11:53;;;;;;;7.30;1.60;;;;;;;17.68;91.73;98906.91;110502;1267;23086;-57
2023/08/01 07:14:24;;;;;;;9.00;1.70;;;;;;;17.67;91.83;98909.55;110533;1273;22156;-57
2023/08/01 07:16:54;;;;;;;9.90;1.80;;;;;;;17.68;91.87;98913.42;110539;1272;22204;-56
2023/08/01 07:19:25;;;;;;;7.40;1.40;;;;;;;17.70;92.18;98908.20;110459;1266;22431;-57
2023/08/01 07:21:56;;;;;;;7.40;1.60;;;;;;;17.71;92.30;98906.20;110480;1267;22922;-58
2023/08/01 07:24:27;;;;;;;8.40;2.30;;;;;;;17.72;92.62;98899.59;110497;1267;22210;-58
2023/08/01 07:26:58;;;;;;;7.40;1.80;;;;;;;17.75;92.76;98897.70;110562;1270;22341;-58
2023/08/01 07:29:29;;;;;;;8.50;1.80;;;;;;;17.76;92.89;98897.83;110496;1273;22179;-58
2023/08/01 07:31:59;;;;;;;8.40;1.60;;;;;;;17.77;92.88;98899.19;110528;1270;22358;-58
2023/08/01 07:34:30;;;;;;;10.70;1.60;;;;;;;17.80;92.97;98893.92;110475;1267;22593;-57
2023/08/01 07:37:01;;;;;;;9.90;1.60;;;;;;;17.83;93.22;98891.24;110512;1273;22469;-56
2023/08/01 07:39:34;;;;;;;8.50;1.50;;;;;;;17.87;93.13;98896.58;110445;1268;22187;-57
2023/08/01 07:42:05;;;;;;;7.70;1.70;;;;;;;17.91;93.29;98893.29;110465;1268;22367;-57
2023/08/01 07:44:36;;;;;;;9.40;1.60;;;;;;;17.95;93.49;98894.89;110519;1272;22415;-57
2023/08/01 07:47:08;;;;;;;7.40;1.90;;;;;;;17.98;93.55;98891.58;110462;1267;22458;-55
2023/08/01 07:49:39;;;;;;;8.30;1.50;;;;;;;18.03;93.75;98885.80;110580;1267;22901;-57
2023/08/01 07:52:10;;;;;;;7.80;1.90;;;;;;;18.07;94.00;98884.83;110520;1273;22327;-57
2023/08/01 07:54:41;;;;;;;8.30;1.70;;;;;;;18.13;94.18;98875.48;110532;1261;22435;-57
2023/08/01 07:57:12;;;;;;;7.20;1.70;;;;;;;18.21;94.39;98872.66;110467;1272;22211;-56
2023/08/01 07:59:42;;;;;;;8.10;1.80;;;;;;;18.28;94.54;98877.70;110415;1264;22193;-57
2023/08/01 08:02:13;;;;;;;10.00;1.80;;;;;;;18.37;94.83;98873.18;109673;1267;55168;-57
2023/08/01 08:04:44;;;;;;;5.70;1.40;;;;;;;18.46;94.88;98867.55;110213;1276;22224;-56
2023/08/01 08:07:15;;;;;;;8.80;1.50;;;;;;;18.57;95.26;98868.42;110197;1269;22435;-56
2023/08/01 08:09:46;;;;;;;8.00;1.40;;;;;;;18.65;95.34;98866.45;110133;1270;22438;-56
2023/08/01 08:12:17;;;;;;;9.00;1.60;;;;;;;18.72;95.20;98863.45;110168;1270;22214;-61
2023/08/01 08:14:48;;;;;;;11.50;2.10;;;;;;;18.80;95.20;98854.03;110177;1270;24102;-57
2023/08/01 08:17:19;;;;;;;8.10;2.10;;;;;;;18.87;94.86;98850.42;110167;1276;22214;-56
2023/08/01 08:19:50;;;;;;;6.60;1.60;;;;;;;18.90;94.45;98846.97;110177;1270;22163;-57
2023/08/01 08:22:21;;;;;;;9.90;1.70;;;;;;;18.91;94.62;98844.59;110120;1270;23537;-57
2023/08/01 08:24:52;;;;;;;8.20;1.60;;;;;;;18.92;94.51;98842.66;110183;1276;23102;-57
2023/08/01 08:27:24;;;;;;;9.00;1.50;;;;;;;18.94;94.85;98835.50;110082;1270;22474;-57
2023/08/01 08:29:55;;;;;;;9.40;1.90;;;;;;;18.97;95.14;98827.27;110147;1273;22191;-58
2023/08/01 08:32:26;;;;;;;10.00;1.60;;;;;;;19.03;95.07;98819.33;110153;1270;22341;-57
2023/08/01 08:34:57;;;;;;;8.40;2.00;;;;;;;19.09;95.21;98814.52;110143;1269;22174;-57
2023/08/01 08:37:28;;;;;;;6.80;1.50;;;;;;;19.14;95.01;98816.68;110208;1275;22195;-55
2023/08/01 08:39:59;;;;;;;7.00;1.40;;;;;;;19.18;94.58;98812.76;110035;1270;22488;-56
2023/08/01 08:42:30;;;;;;;6.30;1.40;;;;;;;19.16;94.21;98808.34;110102;1271;23080;-55
2023/08/01 08:45:05;;;;;;;5.90;1.50;;;;;;;19.14;94.15;98803.67;110174;1268;22430;-56
2023/08/01 08:47:42;;;;;;;8.30;1.50;;;;;;;19.12;94.19;98803.70;110254;1271;22557;-55
2023/08/01 08:50:15;;;;;;;9.70;1.80;;;;;;;19.10;94.31;98801.77;110036;1267;22393;-53
2023/08/01 08:52:46;;;;;;;10.40;2.00;;;;;;;19.08;94.62;98806.90;110179;1268;22395;-57
2023/08/01 08:55:21;;;;;;;6.80;1.60;;;;;;;19.07;94.54;98807.66;110231;1270;22452;-56
2023/08/01 08:57:53;;;;;;;8.70;1.90;;;;;;;19.05;94.48;98809.02;110283;1275;23675;-56
2023/08/01 09:00:24;;;;;;;7.80;1.70;;;;;;;19.05;94.61;98809.44;110246;1275;22442;-58
2023/08/01 09:02:55;;;;;;;6.70;1.80;;;;;;;19.02;94.42;98810.37;110039;1268;22439;-57
2023/08/01 09:05:32;;;;;;;10.60;1.70;;;;;;;19.00;94.36;98807.91;110058;1267;22336;-55
2023/08/01 09:08:08;;;;;;;6.40;1.90;;;;;;;19.02;94.68;98803.73;110137;1261;22528;-56
2023/08/01 09:10:39;;;;;;;10.70;1.90;;;;;;;19.04;94.85;98794.40;110118;1267;22509;-54
2023/08/01 09:13:11;;;;;;;7.50;1.70;;;;;;;19.07;94.61;98797.22;110015;1269;22332;-55
2023/08/01 09:15:44;;;;;;;11.10;2.10;;;;;;;19.09;94.48;98796.54;110181;1268;23420;-56
2023/08/01 09:18:14;;;;;;;10.60;1.40;;;;;;;19.12;94.74;98792.59;110210;1268;22390;-53
2023/08/01 09:20:50;;;;;;;7.00;1.50;;;;;;;19.13;94.60;98795.80;110226;1269;22282;-56
2023/08/01 09:23:21;;;;;;;6.10;1.20;;;;;;;19.15;94.62;98796.13;110184;1268;22228;-55
2023/08/01 09:25:52;;;;;;;5.10;1.40;;;;;;;19.15;94.77;98795.86;110015;1270;22407;-57
2023/08/01 09:28:26;;;;;;;10.30;1.40;;;;;;;19.16;94.37;98799.86;110160;1270;23022;-58
2023/08/01 09:30:58;;;;;;;6.70;1.40;;;;;;;19.17;94.32;98799.81;110081;1269;22421;-58
2023/08/01 09:33:41;;;;;;;8.00;1.50;;;;;;;19.18;94.27;98796.19;110151;1273;22388;-55
2023/08/01 09:36:21;;;;;;;6.40;1.40;;;;;;;19.18;94.35;98792.67;110097;1275;23332;-57
2023/08/01 09:38:52;;;;;;;8.20;1.70;;;;;;;19.18;94.26;98793.36;110124;1269;22292;-57
2023/08/01 09:41:23;;;;;;;10.40;1.80;;;;;;;19.17;94.38;98796.94;110099;1270;22260;-57
2023/08/01 09:43:54;;;;;;;8.40;1.50;;;;;;;19.18;94.52;98793.09;110154;1268;22369;-58
2023/08/01 09:46:25;;;;;;;6.10;1.90;;;;;;;19.17;94.19;98792.15;110195;1270;22294;-57
2023/08/01 09:48:56;;;;;;;9.80;1.70;;;;;;;19.17;94.55;98787.96;110171;1270;22289;-57
2023/08/01 09:51:27;;;;;;;6.10;1.70;;;;;;;19.16;94.56;98784.64;110233;1276;22171;-57
2023/08/01 09:53:59;;;;;;;5.90;1.20;;;;;;;19.17;94.72;98781.44;110251;1270;23707;-55
2023/08/01 09:56:30;;;;;;;8.00;1.50;;;;;;;19.14;94.56;98776.21;110216;1268;22929;-55
2023/08/01 09:59:02;;;;;;;5.10;1.20;;;;;;;19.12;94.49;98770.36;110198;1254;22373;-58
2023/08/01 10:01:34;;;;;;;6.30;1.50;;;;;;;19.13;94.50;98768.23;110233;1269;23387;-57
2023/08/01 10:04:08;;;;;;;6.50;1.60;;;;;;;19.12;94.37;98767.68;110207;1270;22377;-57
2023/08/01 10:06:42;;;;;;;9.80;2.00;;;;;;;19.12;94.59;98763.98;110204;1270;23337;-55
2023/08/01 10:09:15;;;;;;;7.50;1.70;;;;;;;19.12;94.85;98766.11;110126;1270;22296;-59
2023/08/01 10:11:46;;;;;;;11.30;1.70;;;;;;;19.13;94.90;98765.05;110145;1270;22411;-59
2023/08/01 10:14:18;;;;;;;8.60;1.40;;;;;;;19.12;94.79;98757.95;110154;1270;23076;-55
2023/08/01 10:16:50;;;;;;;7.90;1.30;;;;;;;19.14;94.67;98755.55;110193;1270;22378;-58
2023/08/01 10:19:22;;;;;;;6.10;1.30;;;;;;;19.18;94.42;98752.05;110232;1276;22227;-55
2023/08/01 10:21:54;;;;;;;6.90;1.90;;;;;;;19.19;94.03;98748.65;110211;1273;22400;-56
2023/08/01 10:24:26;;;;;;;7.00;1.20;;;;;;;19.21;93.78;98751.53;110203;1269;22150;-56
2023/08/01 10:26:57;;;;;;;6.20;1.40;;;;;;;19.25;93.78;98749.07;110086;1270;22330;-58
2023/08/01 10:29:38;;;;;;;6.00;1.30;;;;;;;19.28;93.80;98746.34;110135;1270;22498;-57
2023/08/01 10:32:10;;;;;;;7.60;1.30;;;;;;;19.32;93.67;98740.16;110038;1267;22430;-56
2023/08/01 10:34:51;;;;;;;6.90;1.30;;;;;;;19.36;93.72;98738.84;110153;1269;22941;-57
2023/08/01 10:37:22;;;;;;;7.00;1.20;;;;;;;19.40;93.21;98738.02;110121;1270;22432;-55
2023/08/01 10:40:01;;;;;;;8.00;1.50;;;;;;;19.41;93.07;98736.40;110173;1269;23167;-56
2023/08/01 10:42:42;;;;;;;10.10;2.10;;;;;;;19.40;92.91;98731.42;110172;1261;22185;-57
2023/08/01 10:45:25;;;;;;;5.30;1.30;;;;;;;19.39;92.75;98724.46;107343;1254;22528;-59
2023/08/01 10:48:06;;;;;;;5.60;1.20;;;;;;;19.40;93.01;98726.00;110148;1270;22969;-59
2023/08/01 10:50:38;;;;;;;7.30;1.20;;;;;;;19.43;92.87;98716.11;110050;1269;23114;-55
2023/08/01 10:53:10;;;;;;;5.00;1.20;;;;;;;19.47;92.63;98714.27;110178;1270;22296;-57
2023/08/01 10:55:46;;;;;;;5.80;1.40;;;;;;;19.49;92.14;98712.74;110117;1269;23101;-55
2023/08/01 10:58:17;;;;;;;5.80;1.30;;;;;;;19.51;92.00;98713.23;110153;1269;23114;-55
2023/08/01 11:00:58;;;;;;;5.60;1.10;;;;;;;19.52;91.86;98713.34;110140;1273;23127;-56
2023/08/01 11:03:38;;;;;;;4.20;0.90;;;;;;;19.56;92.00;98717.20;110183;1269;22203;-59
2023/08/01 11:06:09;;;;;;;3.60;1.00;;;;;;;19.59;91.91;98720.03;110181;1273;22353;-58
2023/08/01 11:08:43;;;;;;;6.80;1.50;;;;;;;19.60;91.86;98727.77;110155;1270;22972;-58
2023/08/01 11:11:15;;;;;;;5.30;1.30;;;;;;;19.61;91.95;98731.64;110159;1269;22328;-57
2023/08/01 11:13:56;;;;;;;5.40;1.50;;;;;;;19.58;92.03;98728.03;110185;1269;22230;-58
2023/08/01 11:16:27;;;;;;;5.60;1.50;;;;;;;19.54;92.16;98728.50;110166;1276;22299;-58
2023/08/01 11:18:58;;;;;;;11.20;1.60;;;;;;;19.54;92.57;98722.73;110017;1269;22703;-57
2023/08/01 11:21:30;;;;;;;7.40;1.40;;;;;;;19.52;92.74;98718.01;110154;1269;22407;-57
2023/08/01 11:24:06;;;;;;;7.50;1.50;;;;;;;19.51;93.03;98717.19;110100;1270;22330;-62
2023/08/01 11:26:40;;;;;;;8.20;2.60;;;;;;;19.49;92.94;98712.52;110128;1269;22363;-57
2023/08/01 11:29:12;;;;;;;5.60;1.10;;;;;;;19.48;92.63;98707.29;110128;1270;22229;-59
2023/08/01 11:31:54;;;;;;;6.00;1.00;;;;;;;19.43;92.22;98705.51;110196;1276;22277;-61
2023/08/01 11:34:25;;;;;;;7.90;1.20;;;;;;;19.40;91.84;98701.84;110183;1276;22465;-62
2023/08/01 11:36:56;;;;;;;4.10;1.00;;;;;;;19.37;91.87;98695.33;110176;1270;22987;-60
2023/08/01 11:39:27;;;;;;;5.00;1.10;;;;;;;19.34;91.85;98689.00;110195;1269;22920;-57
2023/08/01 11:41:58;;;;;;;7.10;1.10;;;;;;;19.33;92.29;98685.29;110196;1264;22327;-57
2023/08/01 11:44:29;;;;;;;5.30;1.20;;;;;;;19.36;92.64;98682.10;110215;1273;22976;-58